Time,TemperatureF,DewpointF,PressureIn,WindDirection,WindDirectionDegrees,WindSpeedMPH,WindSpeedGustMPH,Humidity,HourlyPrecipIn,Conditions,Clouds,dailyrainin,SoftwareType,DateUTC
2013-03-26 00:10:00,57.8,46.0,30.05,NW,321,4.0,12.0,66,0.00,,,0.00,weatherlink.com 1.10,2013-03-26 04:10:00,
2013-03-26 00:25:00,57.8,46.0,30.05,NNW,342,7.0,10.0,66,0.00,,,0.00,weatherlink.com 1.10,2013-03-26 04:25:00,
2013-03-26 00:41:00,57.9,47.0,30.05,NW,304,6.0,10.0,66,0.00,,,0.00,weatherlink.com 1.10,2013-03-26 04:41:00,
2013-03-26 00:56:00,57.9,47.0,30.05,NW,326,5.0,11.0,67,0.00,,,0.00,weatherlink.com 1.10,2013-03-26 04:56:00,
2013-03-26 01:11:00,58.0,47.0,30.05,NW,314,4.0,11.0,67,0.00,,,0.00,weatherlink.com 1.10,2013-03-26 05:11:00,
2013-03-26 01:28:00,58.1,48.0,30.05,NW,321,3.0,10.0,68,0.00,,,0.00,weatherlink.com 1.10,2013-03-26 05:28:00,
2013-03-26 01:41:00,57.7,48.0,30.05,WNW,288,2.0,7.0,70,0.00,,,0.00,weatherlink.com 1.10,2013-03-26 05:41:00,
2013-03-26 02:11:00,57.5,47.0,30.05,NNW,338,2.0,9.0,69,0.00,,,0.00,weatherlink.com 1.10,2013-03-26 06:11:00,
2013-03-26 02:26:00,57.2,47.0,30.04,NNW,333,2.0,7.0,70,0.00,,,0.00,weatherlink.com 1.10,2013-03-26 06:26:00,
2013-03-26 03:26:00,56.0,48.0,30.05,North,354,3.0,5.0,74,0.00,,,0.00,weatherlink.com 1.10,2013-03-26 07:26:00,
2013-03-26 03:56:00,55.2,47.0,30.04,NW,311,2.0,6.0,75,0.00,,,0.00,weatherlink.com 1.10,2013-03-26 07:56:00,
2013-03-26 04:11:00,55.0,48.0,30.05,North,9,1.0,5.0,76,0.00,,,0.00,weatherlink.com 1.10,2013-03-26 08:11:00,
2013-03-26 04:26:00,55.2,47.0,30.05,WNW,298,3.0,6.0,75,0.00,,,0.00,weatherlink.com 1.10,2013-03-26 08:26:00,
2013-03-26 04:41:00,55.0,47.0,30.05,NE,34,2.0,4.0,75,0.00,,,0.00,weatherlink.com 1.10,2013-03-26 08:41:00,
2013-03-26 04:56:00,54.8,47.0,30.05,NNE,18,0.0,5.0,75,0.00,,,0.00,weatherlink.com 1.10,2013-03-26 08:56:00,
2013-03-26 05:11:00,54.5,47.0,30.05,NNE,13,0.0,3.0,76,0.00,,,0.00,weatherlink.com 1.10,2013-03-26 09:11:00,
2013-03-26 05:26:00,54.1,47.0,30.06,North,5,1.0,3.0,76,0.00,,,0.00,weatherlink.com 1.10,2013-03-26 09:26:00,
2013-03-26 05:41:00,54.1,47.0,30.06,NW,317,2.0,4.0,76,0.00,,,0.00,weatherlink.com 1.10,2013-03-26 09:41:00,
2013-03-26 05:56:00,54.4,47.0,30.06,West,278,2.0,5.0,75,0.00,,,0.00,weatherlink.com 1.10,2013-03-26 09:56:00,
2013-03-26 06:11:00,54.9,46.0,30.07,NNW,333,6.0,9.0,72,0.00,,,0.00,weatherlink.com 1.10,2013-03-26 10:11:00,
2013-03-26 06:27:00,54.2,46.0,30.08,North,8,3.0,8.0,74,0.00,,,0.00,weatherlink.com 1.10,2013-03-26 10:27:00,
2013-03-26 06:41:00,53.4,44.0,30.09,NNE,12,5.0,8.0,70,0.00,,,0.00,weatherlink.com 1.10,2013-03-26 10:41:00,
2013-03-26 06:56:00,53.0,40.0,30.10,NW,315,2.0,9.0,62,0.00,,,0.00,weatherlink.com 1.10,2013-03-26 10:56:00,
2013-03-26 07:11:00,52.8,39.0,30.10,NW,317,1.0,11.0,60,0.00,,,0.00,weatherlink.com 1.10,2013-03-26 11:11:00,
2013-03-26 07:27:00,52.6,38.0,30.10,NNW,333,3.0,9.0,57,0.00,,,0.00,weatherlink.com 1.10,2013-03-26 11:27:00,
2013-03-26 07:42:00,52.8,38.0,30.11,NW,307,4.0,6.0,57,0.00,,,0.00,weatherlink.com 1.10,2013-03-26 11:42:00,
2013-03-26 07:57:00,52.9,37.0,30.12,NNE,29,4.0,7.0,56,0.00,,,0.00,weatherlink.com 1.10,2013-03-26 11:57:00,
2013-03-26 08:12:00,53.1,37.0,30.12,NW,325,1.0,9.0,54,0.00,,,0.00,weatherlink.com 1.10,2013-03-26 12:12:00,
2013-03-26 08:27:00,53.2,36.0,30.13,NNE,27,2.0,9.0,53,0.00,,,0.00,weatherlink.com 1.10,2013-03-26 12:27:00,
2013-03-26 08:42:00,53.4,36.0,30.15,NNW,340,3.0,8.0,53,0.00,,,0.00,weatherlink.com 1.10,2013-03-26 12:42:00,
2013-03-26 08:57:00,54.2,36.0,30.15,North,7,7.0,12.0,51,0.00,,,0.00,weatherlink.com 1.10,2013-03-26 12:57:00,
2013-03-26 09:12:00,54.9,37.0,30.16,ESE,102,5.0,10.0,51,0.00,,,0.00,weatherlink.com 1.10,2013-03-26 13:12:00,
2013-03-26 09:27:00,55.6,35.0,30.17,North,6,4.0,11.0,47,0.00,,,0.00,weatherlink.com 1.10,2013-03-26 13:27:00,
2013-03-26 09:42:00,55.5,36.0,30.17,NE,35,11.0,12.0,48,0.00,,,0.00,weatherlink.com 1.10,2013-03-26 13:42:00,
2013-03-26 09:57:00,56.5,37.0,30.17,NNW,347,2.0,9.0,49,0.00,,,0.00,weatherlink.com 1.10,2013-03-26 13:57:00,
2013-03-26 10:12:00,56.7,37.0,30.18,ENE,63,4.0,12.0,48,0.00,,,0.00,weatherlink.com 1.10,2013-03-26 14:12:00,
2013-03-26 10:27:00,56.1,37.0,30.18,NNW,343,5.0,15.0,49,0.00,,,0.00,weatherlink.com 1.10,2013-03-26 14:27:00,
2013-03-26 10:42:00,57.4,39.0,30.18,NW,314,9.0,12.0,51,0.00,,,0.00,weatherlink.com 1.10,2013-03-26 14:42:00,
2013-03-26 10:57:00,57.9,39.0,30.18,NE,47,4.0,11.0,49,0.00,,,0.00,weatherlink.com 1.10,2013-03-26 14:57:00,
2013-03-26 11:27:00,56.2,38.0,30.19,NNW,328,9.0,18.0,50,0.00,,,0.00,weatherlink.com 1.10,2013-03-26 15:27:00,
2013-03-26 11:42:00,59.1,40.0,30.18,NNE,22,3.0,11.0,49,0.00,,,0.00,weatherlink.com 1.10,2013-03-26 15:42:00,
2013-03-26 11:57:00,58.0,38.0,30.18,NW,325,7.0,19.0,48,0.00,,,0.00,weatherlink.com 1.10,2013-03-26 15:57:00,
2013-03-26 12:12:00,58.4,39.0,30.18,WNW,295,12.0,18.0,49,0.00,,,0.00,weatherlink.com 1.10,2013-03-26 16:12:00,
2013-03-26 12:28:00,58.6,39.0,30.18,NW,312,13.0,18.0,49,0.00,,,0.00,weatherlink.com 1.10,2013-03-26 16:28:00,
2013-03-26 12:42:00,59.0,39.0,30.18,NNW,336,10.0,14.0,48,0.00,,,0.00,weatherlink.com 1.10,2013-03-26 16:42:00,
2013-03-26 12:57:00,59.3,39.0,30.18,NW,306,6.0,17.0,48,0.00,,,0.00,weatherlink.com 1.10,2013-03-26 16:57:00,
2013-03-26 13:12:00,60.5,40.0,30.17,WNW,302,6.0,17.0,47,0.00,,,0.00,weatherlink.com 1.10,2013-03-26 17:12:00,
2013-03-26 13:27:00,60.7,41.0,30.17,WNW,297,10.0,16.0,48,0.00,,,0.00,weatherlink.com 1.10,2013-03-26 17:27:00,
2013-03-26 13:42:00,60.8,42.0,30.17,West,272,11.0,13.0,50,0.00,,,0.00,weatherlink.com 1.10,2013-03-26 17:42:00,
2013-03-26 13:57:00,62.1,43.0,30.16,WNW,285,5.0,12.0,50,0.00,,,0.00,weatherlink.com 1.10,2013-03-26 17:57:00,
2013-03-26 14:12:00,61.1,44.0,30.16,WNW,287,15.0,23.0,53,0.00,,,0.00,weatherlink.com 1.10,2013-03-26 18:12:00,
2013-03-26 14:27:00,61.1,44.0,30.15,NW,323,12.0,22.0,53,0.00,,,0.00,weatherlink.com 1.10,2013-03-26 18:27:00,
2013-03-26 14:42:00,60.9,43.0,30.15,WNW,283,7.0,24.0,52,0.00,,,0.00,weatherlink.com 1.10,2013-03-26 18:42:00,
2013-03-26 14:57:00,60.8,41.0,30.16,WNW,296,8.0,25.0,49,0.00,,,0.00,weatherlink.com 1.10,2013-03-26 18:57:00,
2013-03-26 15:12:00,60.4,42.0,30.16,West,267,12.0,22.0,52,0.00,,,0.00,weatherlink.com 1.10,2013-03-26 19:12:00,
2013-03-26 15:27:00,60.9,41.0,30.16,NW,321,14.0,20.0,48,0.00,,,0.00,weatherlink.com 1.10,2013-03-26 19:27:00,
2013-03-26 15:43:00,60.0,42.0,30.16,West,267,11.0,21.0,52,0.00,,,0.00,weatherlink.com 1.10,2013-03-26 19:43:00,
2013-03-26 15:57:00,60.3,40.0,30.16,NW,318,11.0,18.0,47,0.00,,,0.00,weatherlink.com 1.10,2013-03-26 19:57:00,
2013-03-26 16:13:00,59.6,39.0,30.16,NW,312,10.0,20.0,47,0.00,,,0.00,weatherlink.com 1.10,2013-03-26 20:13:00,
2013-03-26 16:28:00,59.6,40.0,30.15,NW,323,10.0,22.0,49,0.00,,,0.00,weatherlink.com 1.10,2013-03-26 20:28:00,
2013-03-26 16:43:00,59.7,40.0,30.15,NW,313,4.0,20.0,48,0.00,,,0.00,weatherlink.com 1.10,2013-03-26 20:43:00,
2013-03-26 16:58:00,59.6,41.0,30.16,WNW,299,12.0,22.0,51,0.00,,,0.00,weatherlink.com 1.10,2013-03-26 20:58:00,
2013-03-26 17:13:00,59.0,40.0,30.15,NW,312,12.0,23.0,49,0.00,,,0.00,weatherlink.com 1.10,2013-03-26 21:13:00,
2013-03-26 17:28:00,59.3,39.0,30.15,NNW,347,6.0,19.0,47,0.00,,,0.00,weatherlink.com 1.10,2013-03-26 21:28:00,
2013-03-26 17:43:00,58.7,40.0,30.16,NW,311,15.0,19.0,50,0.00,,,0.00,weatherlink.com 1.10,2013-03-26 21:43:00,
2013-03-26 17:58:00,58.1,38.0,30.16,NNW,332,12.0,21.0,48,0.00,,,0.00,weatherlink.com 1.10,2013-03-26 21:58:00,
2013-03-26 18:13:00,57.7,37.0,30.16,North,354,9.0,22.0,46,0.00,,,0.00,weatherlink.com 1.10,2013-03-26 22:13:00,
2013-03-26 18:28:00,56.8,38.0,30.17,NW,320,9.0,20.0,49,0.00,,,0.00,weatherlink.com 1.10,2013-03-26 22:28:00,
2013-03-26 18:43:00,56.4,38.0,30.17,West,273,9.0,21.0,50,0.00,,,0.00,weatherlink.com 1.10,2013-03-26 22:43:00,
2013-03-26 18:58:00,55.7,39.0,30.18,NW,312,9.0,22.0,54,0.00,,,0.00,weatherlink.com 1.10,2013-03-26 22:58:00,
2013-03-26 19:13:00,55.5,40.0,30.18,NW,304,10.0,15.0,56,0.00,,,0.00,weatherlink.com 1.10,2013-03-26 23:13:00,
2013-03-26 19:28:00,54.5,40.0,30.19,WNW,300,7.0,13.0,58,0.00,,,0.00,weatherlink.com 1.10,2013-03-26 23:28:00,
2013-03-26 19:43:00,53.5,39.0,30.19,NW,323,8.0,13.0,59,0.00,,,0.00,weatherlink.com 1.10,2013-03-26 23:43:00,
2013-03-26 19:58:00,53.1,39.0,30.20,NW,320,8.0,15.0,60,0.00,,,0.00,weatherlink.com 1.10,2013-03-26 23:58:00,
2013-03-26 20:13:00,52.7,39.0,30.20,NW,310,6.0,12.0,60,0.00,,,0.00,weatherlink.com 1.10,2013-03-27 00:13:00,
2013-03-26 20:28:00,52.4,40.0,30.21,WNW,299,5.0,9.0,63,0.00,,,0.00,weatherlink.com 1.10,2013-03-27 00:28:00,
2013-03-26 20:43:00,52.2,40.0,30.21,West,277,6.0,10.0,63,0.00,,,0.00,weatherlink.com 1.10,2013-03-27 00:43:00,
2013-03-26 20:58:00,52.3,40.0,30.22,WNW,284,5.0,14.0,64,0.00,,,0.00,weatherlink.com 1.10,2013-03-27 00:58:00,
2013-03-26 21:13:00,52.4,40.0,30.21,NNW,328,7.0,11.0,62,0.00,,,0.00,weatherlink.com 1.10,2013-03-27 01:13:00,
2013-03-26 21:28:00,52.2,40.0,30.22,NW,315,7.0,12.0,63,0.00,,,0.00,weatherlink.com 1.10,2013-03-27 01:28:00,
2013-03-26 21:43:00,52.1,39.0,30.23,NW,308,7.0,11.0,62,0.00,,,0.00,weatherlink.com 1.10,2013-03-27 01:43:00,
2013-03-26 21:58:00,51.8,40.0,30.23,NW,321,2.0,8.0,64,0.00,,,0.00,weatherlink.com 1.10,2013-03-27 01:58:00,
2013-03-26 22:14:00,50.9,40.0,30.23,WNW,302,2.0,4.0,66,0.00,,,0.00,weatherlink.com 1.10,2013-03-27 02:14:00,
2013-03-26 22:29:00,50.1,40.0,30.24,NE,34,1.0,3.0,68,0.00,,,0.00,weatherlink.com 1.10,2013-03-27 02:29:00,
2013-03-26 22:44:00,49.7,40.0,30.24,NE,40,1.0,4.0,69,0.00,,,0.00,weatherlink.com 1.10,2013-03-27 02:44:00,
2013-03-26 22:59:00,49.2,40.0,30.24,NNE,19,0.0,3.0,70,0.00,,,0.00,weatherlink.com 1.10,2013-03-27 02:59:00,
2013-03-26 23:14:00,48.6,40.0,30.25,North,11,1.0,2.0,71,0.00,,,0.00,weatherlink.com 1.10,2013-03-27 03:14:00,
2013-03-26 23:29:00,48.5,40.0,30.25,NNE,24,0.0,4.0,72,0.00,,,0.00,weatherlink.com 1.10,2013-03-27 03:29:00,
2013-03-26 23:44:00,48.2,40.0,30.25,NNE,12,0.0,2.0,73,0.00,,,0.00,weatherlink.com 1.10,2013-03-27 03:44:00,
2013-03-26 23:59:00,48.2,40.0,30.25,NE,37,1.0,4.0,73,0.00,,,0.00,weatherlink.com 1.10,2013-03-27 03:59:00,